createdAt,value
2018-12-08T00:00:55.431Z,7.47
2018-12-08T00:01:55.596Z,7.48
2018-12-08T00:02:55.769Z,7.51
2018-12-08T00:03:55.940Z,7.54
2018-12-08T00:04:56.117Z,7.50
2018-12-08T00:05:56.289Z,7.51
2018-12-08T00:06:56.459Z,7.47
2018-12-08T00:07:56.631Z,7.56
2018-12-08T00:08:56.806Z,7.53
2018-12-08T00:09:56.978Z,7.47
2018-12-08T00:10:57.149Z,7.51
2018-12-08T00:11:57.324Z,7.43
2018-12-08T00:12:57.506Z,7.48
2018-12-08T00:13:57.665Z,7.51
2018-12-08T00:14:57.835Z,7.56
2018-12-08T00:15:58.018Z,7.61
2018-12-08T00:16:58.202Z,7.61
2018-12-08T00:17:58.347Z,7.72
2018-12-08T00:18:58.531Z,7.72
2018-12-08T00:19:58.703Z,7.61
2018-12-08T00:20:58.875Z,7.75
2018-12-08T00:21:59.046Z,7.76
2018-12-08T00:22:59.220Z,7.69
2018-12-08T00:23:59.394Z,7.75
2018-12-08T00:24:59.563Z,7.87
2018-12-08T00:25:59.742Z,7.90
2018-12-08T00:26:59.913Z,7.93
2018-12-08T00:28:00.084Z,7.90
2018-12-08T00:29:00.260Z,7.95
2018-12-08T00:30:00.429Z,7.76
2018-12-08T00:31:00.597Z,7.80
2018-12-08T00:32:00.773Z,7.77
2018-12-08T00:33:00.948Z,7.79
2018-12-08T00:34:01.124Z,7.90
2018-12-08T00:35:01.296Z,7.75
2018-12-08T00:36:01.468Z,7.72
2018-12-08T00:37:01.646Z,7.60
2018-12-08T00:38:01.810Z,7.63
2018-12-08T00:39:01.984Z,7.72
2018-12-08T00:40:02.165Z,7.69
2018-12-08T00:41:02.339Z,7.73
2018-12-08T00:42:02.503Z,7.75
2018-12-08T00:43:02.678Z,7.76
2018-12-08T00:44:02.845Z,7.76
2018-12-08T00:45:03.023Z,7.72
2018-12-08T00:46:03.205Z,7.61
2018-12-08T00:47:03.371Z,7.75
2018-12-08T00:48:03.562Z,7.82
2018-12-08T00:49:03.699Z,7.73
2018-12-08T00:50:03.879Z,7.66
2018-12-08T00:51:04.060Z,7.73
2018-12-08T00:52:04.229Z,7.75
2018-12-08T00:53:04.409Z,7.73
2018-12-08T00:54:04.590Z,7.69
2018-12-08T00:55:04.814Z,7.72
2018-12-08T00:56:04.911Z,7.67
2018-12-08T00:57:05.087Z,7.77
2018-12-08T00:58:05.266Z,7.70
2018-12-08T00:59:05.430Z,7.77
2018-12-08T01:00:05.606Z,7.77
2018-12-08T01:01:05.792Z,7.70
2018-12-08T01:02:05.944Z,7.76
2018-12-08T01:03:06.117Z,7.58
2018-12-08T01:04:06.289Z,7.67
2018-12-08T01:05:06.464Z,7.51
2018-12-08T01:06:06.637Z,7.48
2018-12-08T01:07:06.812Z,7.43
2018-12-08T01:08:06.985Z,7.28
2018-12-08T01:09:07.161Z,7.23
2018-12-08T01:10:07.335Z,7.25
2018-12-08T01:11:07.503Z,7.23
2018-12-08T01:12:07.679Z,7.10
2018-12-08T01:13:07.851Z,7.15
2018-12-08T01:14:08.030Z,7.05
2018-12-08T01:15:08.203Z,7.03
2018-12-08T01:16:08.370Z,7.06
2018-12-08T01:17:08.548Z,7.10
2018-12-08T01:18:08.718Z,7.10
2018-12-08T01:19:08.890Z,7.06
2018-12-08T01:20:09.054Z,7.07
2018-12-08T01:21:09.224Z,7.10
2018-12-08T01:22:09.398Z,7.05
2018-12-08T01:23:09.571Z,7.05
2018-12-08T01:24:09.762Z,7.05
2018-12-08T01:25:09.919Z,7.03
2018-12-08T01:26:10.093Z,6.96
2018-12-08T01:27:10.259Z,6.92
2018-12-08T01:28:10.432Z,6.95
2018-12-08T01:29:10.605Z,6.97
2018-12-08T01:30:10.783Z,6.92
2018-12-08T01:31:10.946Z,6.84
2018-12-08T01:32:11.128Z,6.99
2018-12-08T01:33:11.302Z,6.93
2018-12-08T01:34:11.473Z,6.99
2018-12-08T01:35:11.648Z,7.05
2018-12-08T01:36:11.825Z,7.05
2018-12-08T01:37:11.996Z,7.02
2018-12-08T01:38:12.180Z,6.95
2018-12-08T01:39:12.342Z,6.93
2018-12-08T01:40:12.518Z,6.97
2018-12-08T01:41:12.691Z,6.97
2018-12-08T01:42:12.868Z,7.03
2018-12-08T01:43:13.036Z,6.87
2018-12-08T01:44:13.209Z,7.03
2018-12-08T01:45:13.382Z,7.00
2018-12-08T01:46:13.564Z,6.99
2018-12-08T01:47:13.731Z,7.07
2018-12-08T01:48:13.912Z,6.99
2018-12-08T01:49:14.079Z,7.03
2018-12-08T01:50:14.250Z,6.88
2018-12-08T01:51:14.421Z,6.82
2018-12-08T01:52:14.595Z,6.81
2018-12-08T01:53:14.770Z,6.89
2018-12-08T01:54:14.941Z,6.84
2018-12-08T01:55:15.116Z,6.95
2018-12-08T01:56:15.284Z,6.99
2018-12-08T01:57:15.458Z,6.92
2018-12-08T01:58:15.631Z,7.02
2018-12-08T01:59:15.800Z,7.06
2018-12-08T02:00:15.972Z,7.07
2018-12-08T02:01:16.166Z,7.07
2018-12-08T02:02:16.342Z,7.13
2018-12-08T02:03:16.521Z,7.10
2018-12-08T02:04:16.687Z,7.20
2018-12-08T02:05:16.859Z,7.10
2018-12-08T02:06:17.052Z,7.13
2018-12-08T02:07:17.205Z,7.00
2018-12-08T02:08:17.369Z,7.10
2018-12-08T02:09:17.558Z,7.21
2018-12-08T02:10:17.722Z,7.28
2018-12-08T02:11:24.668Z,7.23
2018-12-08T02:12:18.065Z,7.28
2018-12-08T02:13:18.241Z,7.33
2018-12-08T02:14:18.415Z,7.36
2018-12-08T02:15:18.588Z,7.43
2018-12-08T02:16:18.760Z,7.40
2018-12-08T02:17:18.932Z,7.28
2018-12-08T02:18:19.121Z,7.31
2018-12-08T02:19:19.278Z,7.23
2018-12-08T02:20:19.450Z,7.18
2018-12-08T02:21:19.624Z,7.21
2018-12-08T02:22:19.797Z,7.23
2018-12-08T02:23:19.978Z,7.28
2018-12-08T02:24:20.145Z,7.28
2018-12-08T02:25:20.319Z,7.18
2018-12-08T02:26:20.487Z,7.24
2018-12-08T02:27:20.661Z,7.20
2018-12-08T02:28:20.831Z,7.06
2018-12-08T02:29:21.003Z,7.07
2018-12-08T02:30:21.179Z,7.14
2018-12-08T02:31:21.352Z,7.07
2018-12-08T02:32:21.532Z,7.03
2018-12-08T02:33:21.696Z,7.03
2018-12-08T02:34:21.881Z,7.07
2018-12-08T02:35:22.043Z,7.07
2018-12-08T02:36:22.215Z,7.14
2018-12-08T02:37:22.386Z,7.11
2018-12-08T02:38:22.565Z,7.18
2018-12-08T02:39:22.731Z,7.06
2018-12-08T02:40:22.904Z,7.02
2018-12-08T02:41:23.075Z,7.07
2018-12-08T02:42:23.248Z,7.13
2018-12-08T02:43:23.420Z,7.05
2018-12-08T02:44:23.589Z,7.10
2018-12-08T02:45:23.764Z,7.14
2018-12-08T02:46:23.939Z,7.13
2018-12-08T02:47:24.109Z,7.14
2018-12-08T02:48:24.282Z,7.24
2018-12-08T02:49:24.454Z,7.21
2018-12-08T02:50:24.629Z,7.15
2018-12-08T02:51:24.801Z,7.21
2018-12-08T02:52:24.975Z,7.28
2018-12-08T02:53:25.147Z,7.20
2018-12-08T02:54:25.313Z,7.21
2018-12-08T02:55:25.488Z,7.28
2018-12-08T02:56:25.662Z,7.23
2018-12-08T02:57:25.834Z,7.20
2018-12-08T02:58:26.003Z,7.33
2018-12-08T02:59:26.200Z,7.25
2018-12-08T03:00:26.363Z,7.32
2018-12-08T03:01:26.527Z,7.29
2018-12-08T03:02:26.696Z,7.43
2018-12-08T03:03:26.870Z,7.31
2018-12-08T03:04:27.043Z,7.32
2018-12-08T03:05:27.225Z,7.31
2018-12-08T03:06:27.390Z,7.31
2018-12-08T03:07:27.569Z,7.40
2018-12-08T03:08:27.738Z,7.33
2018-12-08T03:09:27.912Z,7.39
2018-12-08T03:10:28.083Z,7.38
2018-12-08T03:11:28.256Z,7.40
2018-12-08T03:12:28.434Z,7.36
2018-12-08T03:13:28.600Z,7.43
2018-12-08T03:14:28.776Z,7.40
2018-12-08T03:15:28.942Z,7.58
2018-12-08T03:16:29.115Z,7.53
2018-12-08T03:17:29.286Z,7.50
2018-12-08T03:18:29.459Z,7.54
2018-12-08T03:19:29.634Z,7.51
2018-12-08T03:20:29.809Z,7.50
2018-12-08T03:21:29.982Z,7.58
2018-12-08T03:22:30.161Z,7.56
2018-12-08T03:23:30.325Z,7.57
2018-12-08T03:24:30.499Z,7.54
2018-12-08T03:25:30.671Z,7.58
2018-12-08T03:26:30.844Z,7.45
2018-12-08T03:27:31.022Z,7.51
2018-12-08T03:28:31.185Z,7.51
2018-12-08T03:29:31.362Z,7.53
2018-12-08T03:30:31.533Z,7.51
2018-12-08T03:31:31.717Z,7.50
2018-12-08T03:32:31.888Z,7.54
2018-12-08T03:33:32.063Z,7.51
2018-12-08T03:34:32.223Z,7.58
2018-12-08T03:35:32.397Z,7.50
2018-12-08T03:37:32.745Z,7.51
2018-12-08T03:38:32.914Z,7.51
2018-12-08T03:39:33.098Z,7.53
2018-12-08T03:40:33.261Z,7.50
2018-12-08T03:41:33.432Z,7.47
2018-12-08T03:42:33.602Z,7.51
2018-12-08T03:43:33.772Z,7.56
2018-12-08T03:44:33.944Z,7.50
2018-12-08T03:45:34.125Z,7.47
2018-12-08T03:46:34.285Z,7.54
2018-12-08T03:47:34.460Z,7.50
2018-12-08T03:48:34.633Z,7.54
2018-12-08T03:49:34.807Z,7.48
2018-12-08T03:50:34.976Z,7.51
2018-12-08T03:51:35.150Z,7.60
2018-12-08T03:52:35.342Z,7.57
2018-12-08T03:53:35.493Z,7.57
2018-12-08T03:54:35.664Z,7.48
2018-12-08T03:55:35.836Z,7.56
2018-12-08T03:56:36.009Z,7.58
2018-12-08T03:57:36.182Z,7.50
2018-12-08T03:58:36.364Z,7.48
2018-12-08T03:59:36.524Z,7.50
2018-12-08T04:00:36.697Z,7.51
2018-12-08T04:01:36.868Z,7.47
2018-12-08T04:02:37.044Z,7.48
2018-12-08T04:03:37.214Z,7.51
2018-12-08T04:04:37.396Z,7.45
2018-12-08T04:05:37.562Z,7.47
2018-12-08T04:06:37.738Z,7.60
2018-12-08T04:07:37.908Z,7.53
2018-12-08T04:08:38.073Z,7.58
2018-12-08T04:09:38.258Z,7.57
2018-12-08T04:10:38.438Z,7.58
2018-12-08T04:11:38.632Z,7.60
2018-12-08T04:12:38.772Z,7.54
2018-12-08T04:13:38.940Z,7.60
2018-12-08T04:14:39.112Z,7.57
2018-12-08T04:15:39.282Z,7.57
2018-12-08T04:16:39.458Z,7.61
2018-12-08T04:17:39.626Z,7.54
2018-12-08T04:18:39.795Z,7.60
2018-12-08T04:19:39.969Z,7.61
2018-12-08T04:20:40.142Z,7.63
2018-12-08T04:21:40.313Z,7.67
2018-12-08T04:22:40.490Z,7.67
2018-12-08T04:23:40.660Z,7.60
2018-12-08T04:24:40.844Z,7.53
2018-12-08T04:25:41.009Z,7.63
2018-12-08T04:26:41.182Z,7.58
2018-12-08T04:27:41.354Z,7.53
2018-12-08T04:28:41.532Z,7.58
2018-12-08T04:29:41.697Z,7.58
2018-12-08T04:30:41.872Z,7.45
2018-12-08T04:31:42.044Z,7.45
2018-12-08T04:32:42.230Z,7.56
2018-12-08T04:33:42.398Z,7.61
2018-12-08T04:34:42.564Z,7.57
2018-12-08T04:35:42.736Z,7.54
2018-12-08T04:36:42.910Z,7.50
2018-12-08T04:37:43.090Z,7.58
2018-12-08T04:38:43.258Z,7.47
2018-12-08T04:39:43.428Z,7.40
2018-12-08T04:40:43.602Z,7.42
2018-12-08T04:41:43.776Z,7.43
2018-12-08T04:42:43.952Z,7.50
2018-12-08T04:43:44.122Z,7.47
2018-12-08T04:44:44.299Z,7.43
2018-12-08T04:45:44.471Z,7.47
2018-12-08T04:46:44.635Z,7.40
2018-12-08T04:47:44.817Z,7.31
2018-12-08T04:48:44.988Z,7.40
2018-12-08T04:49:45.152Z,7.40
2018-12-08T04:50:45.329Z,7.39
2018-12-08T04:51:45.506Z,7.40
2018-12-08T04:52:45.675Z,7.36
2018-12-08T04:53:45.848Z,7.24
2018-12-08T04:54:46.021Z,7.28
2018-12-08T04:55:46.192Z,7.31
2018-12-08T04:56:46.364Z,7.31
2018-12-08T04:57:46.534Z,7.31
2018-12-08T04:58:46.723Z,7.24
2018-12-08T04:59:46.888Z,7.23
2018-12-08T05:00:47.063Z,7.15
2018-12-08T05:01:47.232Z,7.20
2018-12-08T05:02:47.405Z,7.21
2018-12-08T05:03:47.577Z,7.15
2018-12-08T05:04:47.750Z,7.18
2018-12-08T05:05:47.940Z,7.23
2018-12-08T05:06:48.100Z,7.29
2018-12-08T05:07:48.267Z,7.29
2018-12-08T05:08:48.440Z,7.18
2018-12-08T05:09:48.617Z,7.32
2018-12-08T05:10:48.785Z,7.29
2018-12-08T05:11:48.956Z,7.28
2018-12-08T05:12:49.133Z,7.25
2018-12-08T05:13:49.311Z,7.33
2018-12-08T05:14:49.486Z,7.25
2018-12-08T05:15:49.658Z,7.29
2018-12-08T05:16:49.830Z,7.20
2018-12-08T05:17:50.006Z,7.29
2018-12-08T05:18:50.175Z,7.28
2018-12-08T05:19:50.341Z,7.28
2018-12-08T05:20:50.520Z,7.29
2018-12-08T05:21:50.694Z,7.24
2018-12-08T05:22:50.867Z,7.32
2018-12-08T05:23:51.039Z,7.31
2018-12-08T05:24:51.213Z,7.25
2018-12-08T05:25:51.384Z,7.28
2018-12-08T05:26:51.561Z,7.32
2018-12-08T05:27:51.731Z,7.29
2018-12-08T05:28:51.903Z,7.35
2018-12-08T05:29:52.078Z,7.36
2018-12-08T05:30:52.249Z,7.36
2018-12-08T05:31:52.423Z,7.36
2018-12-08T05:32:52.595Z,7.39
2018-12-08T05:33:52.800Z,7.38
2018-12-08T05:34:52.941Z,7.45
2018-12-08T05:35:53.116Z,7.39
2018-12-08T05:36:53.291Z,7.36
2018-12-08T05:37:53.462Z,7.47
2018-12-08T05:38:53.635Z,7.51
2018-12-08T05:39:53.809Z,7.40
2018-12-08T05:40:53.977Z,7.40
2018-12-08T05:41:54.157Z,7.43
2018-12-08T05:42:54.329Z,7.43
2018-12-08T05:43:54.507Z,7.54
2018-12-08T05:44:54.669Z,7.47
2018-12-08T05:45:54.840Z,7.57
2018-12-08T05:46:55.014Z,7.51
2018-12-08T05:47:55.186Z,7.53
2018-12-08T05:48:55.361Z,7.47
2018-12-08T05:49:55.529Z,7.54
2018-12-08T05:50:56.442Z,7.48
2018-12-08T05:51:55.876Z,7.50
2018-12-08T05:52:56.051Z,7.48
2018-12-08T05:53:56.228Z,7.48
2018-12-08T05:54:56.396Z,7.36
2018-12-08T05:55:56.566Z,7.50
2018-12-08T05:56:56.743Z,7.48
2018-12-08T05:57:56.913Z,7.47
2018-12-08T05:58:57.085Z,7.43
2018-12-08T05:59:57.258Z,7.53
2018-12-08T06:00:57.524Z,7.43
2018-12-08T06:01:57.604Z,7.48
2018-12-08T06:02:57.778Z,7.43
2018-12-08T06:03:57.950Z,7.54
2018-12-08T06:04:58.126Z,7.53
2018-12-08T06:05:58.296Z,7.47
2018-12-08T06:06:58.474Z,7.54
2018-12-08T06:07:58.832Z,7.48
2018-12-08T06:08:58.825Z,7.47
2018-12-08T06:09:58.990Z,7.53
2018-12-08T06:10:59.174Z,7.58
2018-12-08T06:11:59.342Z,7.58
2018-12-08T06:12:59.514Z,7.57
2018-12-08T06:13:59.684Z,7.58
2018-12-08T06:14:59.859Z,7.57
2018-12-08T06:16:00.030Z,7.66
2018-12-08T06:17:00.205Z,7.51
2018-12-08T06:18:00.377Z,7.61
2018-12-08T06:19:00.555Z,7.60
2018-12-08T06:20:00.726Z,7.56
2018-12-08T06:21:00.898Z,7.53
2018-12-08T06:22:01.070Z,7.61
2018-12-08T06:23:01.242Z,7.58
2018-12-08T06:24:01.415Z,7.42
2018-12-08T06:25:01.587Z,7.54
2018-12-08T06:26:01.759Z,7.47
2018-12-08T06:27:01.940Z,7.58
2018-12-08T06:28:02.106Z,7.53
2018-12-08T06:29:02.277Z,7.50
2018-12-08T06:30:02.450Z,7.56
2018-12-08T06:31:02.624Z,7.57
2018-12-08T06:32:02.798Z,7.53
2018-12-08T06:33:02.973Z,7.40
2018-12-08T06:34:03.148Z,7.53
2018-12-08T06:35:03.315Z,7.53
2018-12-08T06:36:03.501Z,7.47
2018-12-08T06:37:03.660Z,7.51
2018-12-08T06:38:03.836Z,7.47
2018-12-08T06:39:04.013Z,7.54
2018-12-08T06:40:04.188Z,7.58
2018-12-08T06:41:04.358Z,7.51
2018-12-08T06:42:04.529Z,7.61
2018-12-08T06:43:04.705Z,7.60
2018-12-08T06:44:04.881Z,7.61
2018-12-08T06:45:05.145Z,7.60
2018-12-08T06:46:05.219Z,7.48
2018-12-08T06:47:05.395Z,7.60
2018-12-08T06:48:05.576Z,7.53
2018-12-08T06:49:05.743Z,7.66
2018-12-08T06:50:05.919Z,7.48
2018-12-08T06:51:06.092Z,7.51
2018-12-08T06:52:06.276Z,7.58
2018-12-08T06:53:06.435Z,7.56
2018-12-08T06:54:06.609Z,7.61
2018-12-08T06:55:06.779Z,7.58
2018-12-08T06:56:06.956Z,7.57
2018-12-08T06:57:07.126Z,7.60
2018-12-08T06:58:07.307Z,7.50
2018-12-08T06:59:07.476Z,7.48
2018-12-08T07:00:07.652Z,7.61
2018-12-08T07:01:07.817Z,7.54
2018-12-08T07:02:07.991Z,7.61
2018-12-08T07:03:08.165Z,7.73
2018-12-08T07:04:08.334Z,7.63
2018-12-08T07:05:08.509Z,7.63
2018-12-08T07:06:08.682Z,7.61
2018-12-08T07:07:08.858Z,7.61
2018-12-08T07:08:09.031Z,7.57
2018-12-08T07:09:09.200Z,7.61
2018-12-08T07:10:09.374Z,7.54
2018-12-08T07:11:09.548Z,7.54
2018-12-08T07:12:09.726Z,7.57
2018-12-08T07:13:09.894Z,7.50
2018-12-08T07:14:10.065Z,7.51
2018-12-08T07:15:10.242Z,7.57
2018-12-08T07:16:10.417Z,7.60
2018-12-08T07:17:10.587Z,7.50
2018-12-08T07:18:10.775Z,7.50
2018-12-08T07:19:10.931Z,7.60
2018-12-08T07:20:11.104Z,7.53
2018-12-08T07:21:11.285Z,7.54
2018-12-08T07:22:11.449Z,7.57
2018-12-08T07:23:11.619Z,7.54
2018-12-08T07:24:11.795Z,7.50
2018-12-08T07:25:11.965Z,7.51
2018-12-08T07:26:12.135Z,7.63
2018-12-08T07:27:12.310Z,7.61
2018-12-08T07:28:12.484Z,7.54
2018-12-08T07:29:12.655Z,7.53
2018-12-08T07:30:12.841Z,7.54
2018-12-08T07:31:13.008Z,7.45
2018-12-08T07:32:13.182Z,7.57
2018-12-08T07:33:13.349Z,7.58
2018-12-08T07:34:13.522Z,7.61
2018-12-08T07:35:13.698Z,7.58
2018-12-08T07:36:13.873Z,7.56
2018-12-08T07:37:14.055Z,7.54
2018-12-08T07:38:14.218Z,7.53
2018-12-08T07:39:14.391Z,7.51
2018-12-08T07:40:14.582Z,7.48
2018-12-08T07:41:14.735Z,7.54
2018-12-08T07:42:14.907Z,7.58
2018-12-08T07:43:15.084Z,7.54
2018-12-08T07:44:15.254Z,7.54
2018-12-08T07:45:15.433Z,7.57
2018-12-08T07:46:15.596Z,7.56
2018-12-08T07:47:15.771Z,7.54
2018-12-08T07:48:15.942Z,7.56
2018-12-08T07:49:16.125Z,7.61
2018-12-08T07:50:16.293Z,7.51
2018-12-08T07:51:16.468Z,7.40
2018-12-08T07:52:16.633Z,7.42
2018-12-08T07:53:16.806Z,7.42
2018-12-08T07:54:16.979Z,7.43
2018-12-08T07:55:17.148Z,7.50
2018-12-08T07:56:17.341Z,7.47
2018-12-08T07:57:17.514Z,7.50
2018-12-08T07:58:17.685Z,7.47
2018-12-08T07:59:17.854Z,7.45
2018-12-08T08:00:18.027Z,7.42
2018-12-08T08:01:18.203Z,7.57
2018-12-08T08:02:18.381Z,7.50
2018-12-08T08:03:18.555Z,7.40
2018-12-08T08:04:18.907Z,7.42
2018-12-08T08:05:18.878Z,7.42
2018-12-08T08:06:19.053Z,7.43
2018-12-08T08:07:19.238Z,7.45
2018-12-08T08:08:19.418Z,7.43
2018-12-08T08:09:19.574Z,7.48
2018-12-08T08:10:19.746Z,7.43
2018-12-08T08:11:19.960Z,7.47
2018-12-08T08:12:20.090Z,7.47
2018-12-08T08:13:20.262Z,7.53
2018-12-08T08:14:20.425Z,7.47
2018-12-08T08:15:20.600Z,7.39
2018-12-08T08:16:20.771Z,7.39
2018-12-08T08:17:20.946Z,7.36
2018-12-08T08:18:21.118Z,7.36
2018-12-08T08:19:21.294Z,7.45
2018-12-08T08:20:21.466Z,7.36
2018-12-08T08:21:21.639Z,7.42
2018-12-08T08:22:21.820Z,7.43
2018-12-08T08:23:21.982Z,7.40
2018-12-08T08:24:22.169Z,7.50
2018-12-08T08:25:22.326Z,7.51
2018-12-08T08:26:22.600Z,7.47
2018-12-08T08:27:22.674Z,7.50
2018-12-08T08:28:22.849Z,7.48
2018-12-08T08:29:23.022Z,7.50
2018-12-08T08:30:23.197Z,7.54
2018-12-08T08:31:23.370Z,7.42
2018-12-08T08:32:23.553Z,7.50
2018-12-08T08:33:23.734Z,7.45
2018-12-08T08:34:23.899Z,7.53
2018-12-08T08:35:24.089Z,7.58
2018-12-08T08:36:24.241Z,7.48
2018-12-08T08:37:24.416Z,7.47
2018-12-08T08:38:24.587Z,7.47
2018-12-08T08:39:24.768Z,7.51
2018-12-08T08:40:24.937Z,7.57
2018-12-08T08:41:25.109Z,7.51
2018-12-08T08:42:25.285Z,7.60
2018-12-08T08:43:25.457Z,7.61
2018-12-08T08:44:25.627Z,7.67
2018-12-08T08:45:25.807Z,7.73
2018-12-08T08:46:25.971Z,7.72
2018-12-08T08:47:26.153Z,7.63
2018-12-08T08:48:26.321Z,7.70
2018-12-08T08:49:26.483Z,7.70
2018-12-08T08:50:26.649Z,7.79
2018-12-08T08:51:26.815Z,7.72
2018-12-08T08:52:26.987Z,7.67
2018-12-08T08:53:27.183Z,7.72
2018-12-08T08:54:27.348Z,7.75
2018-12-08T08:55:27.522Z,7.63
2018-12-08T08:56:27.696Z,7.67
2018-12-08T08:57:27.866Z,7.70
2018-12-08T08:58:28.050Z,7.72
2018-12-08T08:59:28.211Z,7.70
2018-12-08T09:00:28.381Z,7.70
2018-12-08T09:01:28.562Z,7.72
2018-12-08T09:02:28.731Z,7.69
2018-12-08T09:03:28.908Z,7.63
2018-12-08T09:04:29.078Z,7.69
2018-12-08T09:05:29.259Z,7.58
2018-12-08T09:06:29.434Z,7.73
2018-12-08T09:07:29.614Z,7.58
2018-12-08T09:08:29.766Z,7.53
2018-12-08T09:09:29.942Z,7.61
2018-12-08T09:10:30.114Z,7.63
2018-12-08T09:11:30.290Z,7.63
2018-12-08T09:12:30.461Z,7.61
2018-12-08T09:13:30.631Z,7.60
2018-12-08T09:14:30.802Z,7.61
2018-12-08T09:15:30.984Z,7.66
2018-12-08T09:16:31.150Z,7.69
2018-12-08T09:17:31.326Z,7.67
2018-12-08T09:18:31.497Z,7.75
2018-12-08T09:19:31.678Z,7.72
2018-12-08T09:20:31.847Z,7.67
2018-12-08T09:21:32.024Z,7.69
2018-12-08T09:22:32.202Z,7.75
2018-12-08T09:23:32.367Z,7.69
2018-12-08T09:24:32.530Z,7.66
2018-12-08T09:25:32.702Z,7.67
2018-12-08T09:26:32.881Z,7.76
2018-12-08T09:27:33.049Z,7.69
2018-12-08T09:28:33.237Z,7.79
2018-12-08T09:29:33.402Z,7.76
2018-12-08T09:30:33.568Z,7.69
2018-12-08T09:31:33.752Z,7.76
2018-12-08T09:32:33.928Z,7.77
2018-12-08T09:33:34.100Z,7.87
2018-12-08T09:34:34.273Z,7.85
2018-12-08T09:35:34.442Z,7.75
2018-12-08T09:36:34.622Z,7.82
2018-12-08T09:37:34.808Z,7.90
2018-12-08T09:38:34.962Z,7.95
2018-12-08T09:39:35.142Z,7.98
2018-12-08T09:40:35.306Z,7.98
2018-12-08T09:41:35.479Z,7.97
2018-12-08T09:42:35.661Z,7.95
2018-12-08T09:43:35.829Z,8.00
2018-12-08T09:44:36.000Z,8.01
2018-12-08T09:45:41.843Z,8.06
2018-12-08T09:46:36.352Z,8.10
2018-12-08T09:47:36.524Z,8.09
2018-12-08T09:48:36.699Z,8.10
2018-12-08T09:49:36.876Z,7.95
2018-12-08T09:50:37.051Z,8.09
2018-12-08T09:51:37.252Z,8.08
2018-12-08T09:52:37.400Z,7.94
2018-12-08T09:53:37.566Z,8.15
2018-12-08T09:54:37.741Z,7.98
2018-12-08T09:55:37.931Z,8.09
2018-12-08T09:56:38.101Z,8.09
2018-12-08T09:57:38.286Z,8.03
2018-12-08T09:58:38.448Z,8.03
2018-12-08T09:59:38.619Z,8.09
2018-12-08T10:00:38.805Z,8.03
2018-12-08T10:01:38.967Z,7.98
2018-12-08T10:02:39.151Z,8.06
2018-12-08T10:03:39.320Z,8.05
2018-12-08T10:04:39.490Z,7.90
2018-12-08T10:05:39.660Z,7.97
2018-12-08T10:06:39.839Z,8.05
2018-12-08T10:07:40.003Z,8.05
2018-12-08T10:08:40.176Z,7.97
2018-12-08T10:09:40.354Z,8.06
2018-12-08T10:10:40.527Z,8.09
2018-12-08T10:11:40.703Z,8.09
2018-12-08T10:12:40.878Z,8.13
2018-12-08T10:13:41.045Z,8.12
2018-12-08T10:14:41.228Z,8.27
2018-12-08T10:15:41.410Z,8.30
2018-12-08T10:16:41.584Z,8.28
2018-12-08T10:17:41.744Z,8.31
2018-12-08T10:18:41.925Z,8.26
2018-12-08T10:19:42.097Z,8.34
2018-12-08T10:20:42.265Z,8.28
2018-12-08T10:21:42.453Z,8.24
2018-12-08T10:22:42.613Z,8.30
2018-12-08T10:23:42.796Z,8.42
2018-12-08T10:24:42.968Z,8.30
2018-12-08T10:25:43.134Z,8.34
2018-12-08T10:26:43.335Z,8.44
2018-12-08T10:27:43.480Z,8.36
2018-12-08T10:28:43.653Z,8.48
2018-12-08T10:29:43.841Z,8.31
2018-12-08T10:30:44.006Z,8.38
2018-12-08T10:31:44.180Z,8.51
2018-12-08T10:32:44.345Z,8.49
2018-12-08T10:33:44.535Z,8.51
2018-12-08T10:34:44.702Z,8.38
2018-12-08T10:35:44.874Z,8.41
2018-12-08T10:36:45.047Z,8.36
2018-12-08T10:37:45.223Z,8.44
2018-12-08T10:38:45.408Z,8.45
2018-12-08T10:39:45.574Z,8.30
2018-12-08T10:40:45.738Z,8.27
2018-12-08T10:41:45.917Z,8.34
2018-12-08T10:42:46.084Z,8.31
2018-12-08T10:43:46.265Z,8.30
2018-12-08T10:44:46.429Z,8.26
2018-12-08T10:45:46.606Z,8.27
2018-12-08T10:46:46.780Z,8.37
2018-12-08T10:47:46.972Z,8.27
2018-12-08T10:48:47.133Z,8.33
2018-12-08T10:49:47.308Z,8.10
2018-12-08T10:50:47.489Z,8.12
2018-12-08T10:51:47.649Z,8.12
2018-12-08T10:52:47.824Z,8.20
2018-12-08T10:53:47.996Z,8.10
2018-12-08T10:54:48.166Z,8.15
2018-12-08T10:55:48.359Z,8.16
2018-12-08T10:56:48.515Z,8.12
2018-12-08T10:57:48.690Z,8.06
2018-12-08T10:58:48.862Z,8.16
2018-12-08T10:59:49.038Z,8.16
2018-12-08T11:00:49.213Z,8.30
2018-12-08T11:01:49.386Z,8.28
2018-12-08T11:02:49.580Z,8.26
2018-12-08T11:03:49.747Z,8.28
2018-12-08T11:04:49.941Z,8.30
2018-12-08T11:05:50.099Z,8.16
2018-12-08T11:06:50.271Z,8.16
2018-12-08T11:07:50.444Z,8.19
2018-12-08T11:08:50.616Z,8.27
2018-12-08T11:09:50.792Z,8.23
2018-12-08T11:10:50.979Z,8.26
2018-12-08T11:11:51.145Z,8.24
2018-12-08T11:12:51.313Z,8.30
2018-12-08T11:13:51.485Z,8.31
2018-12-08T11:14:51.659Z,8.30
2018-12-08T11:15:51.827Z,8.33
2018-12-08T11:16:51.992Z,8.28
2018-12-08T11:17:52.166Z,8.28
2018-12-08T11:18:52.343Z,8.36
2018-12-08T11:19:52.520Z,8.27
2018-12-08T11:20:52.692Z,8.18
2018-12-08T11:21:52.882Z,8.27
2018-12-08T11:22:53.061Z,8.34
2018-12-08T11:23:53.231Z,8.31
2018-12-08T11:24:53.399Z,8.41
2018-12-08T11:25:53.575Z,8.42
2018-12-08T11:26:53.749Z,8.46
2018-12-08T11:27:53.920Z,8.55
2018-12-08T11:28:54.101Z,8.61
2018-12-08T11:29:54.266Z,8.58
2018-12-08T11:30:54.443Z,8.58
2018-12-08T11:31:54.621Z,8.73
2018-12-08T11:32:54.796Z,8.67
2018-12-08T11:33:54.965Z,8.79
2018-12-08T11:34:55.158Z,8.81
2018-12-08T11:35:55.299Z,8.82
2018-12-08T11:36:55.474Z,8.63
2018-12-08T11:37:55.650Z,8.69
2018-12-08T11:38:55.831Z,8.74
2018-12-08T11:39:56.093Z,8.73
2018-12-08T11:40:56.179Z,8.66
2018-12-08T11:41:56.357Z,8.64
2018-12-08T11:42:56.538Z,8.60
2018-12-08T11:43:56.710Z,8.56
2018-12-08T11:44:56.883Z,8.49
2018-12-08T11:45:57.061Z,8.58
2018-12-08T11:46:57.225Z,8.61
2018-12-08T11:47:57.401Z,8.58
2018-12-08T11:48:57.587Z,8.60
2018-12-08T11:49:57.748Z,8.64
2018-12-08T11:50:57.923Z,8.66
2018-12-08T11:51:58.088Z,8.61
2018-12-08T11:52:58.270Z,8.69
2018-12-08T11:53:58.452Z,8.69
2018-12-08T11:54:58.617Z,8.70
2018-12-08T11:55:58.780Z,8.66
2018-12-08T11:56:58.958Z,8.64
2018-12-08T11:57:59.125Z,8.53
2018-12-08T11:58:59.306Z,8.56
2018-12-08T11:59:59.471Z,8.48
2018-12-08T12:00:59.650Z,8.55
2018-12-08T12:01:59.833Z,8.61
2018-12-08T12:03:00.016Z,8.56
2018-12-08T12:04:00.161Z,8.61
2018-12-08T12:05:00.338Z,8.71
2018-12-08T12:06:00.522Z,8.78
2018-12-08T12:07:00.678Z,8.79
2018-12-08T12:08:00.857Z,8.61
2018-12-08T12:09:01.033Z,8.66
2018-12-08T12:10:01.211Z,8.66
2018-12-08T12:11:01.374Z,8.48
2018-12-08T12:12:01.558Z,8.58
2018-12-08T12:13:01.728Z,8.61
2018-12-08T12:14:01.908Z,8.66
2018-12-08T12:15:02.073Z,8.48
2018-12-08T12:16:02.248Z,8.45
2018-12-08T12:17:02.447Z,8.49
2018-12-08T12:18:02.616Z,8.48
2018-12-08T12:19:02.767Z,8.51
2018-12-08T12:20:02.928Z,8.60
2018-12-08T12:21:03.108Z,8.55
2018-12-08T12:22:03.280Z,8.53
2018-12-08T12:23:03.455Z,8.55
2018-12-08T12:24:03.636Z,8.51
2018-12-08T12:25:03.798Z,8.52
2018-12-08T12:26:03.994Z,8.52
2018-12-08T12:27:04.148Z,8.46
2018-12-08T12:28:04.315Z,8.55
2018-12-08T12:29:04.492Z,8.58
2018-12-08T12:30:04.666Z,8.58
2018-12-08T12:31:04.834Z,8.55
2018-12-08T12:32:05.013Z,8.56
2018-12-08T12:33:05.172Z,8.63
2018-12-08T12:34:05.349Z,8.61
2018-12-08T12:35:05.583Z,8.64
2018-12-08T12:36:05.668Z,8.64
2018-12-08T12:37:05.848Z,8.61
2018-12-08T12:38:06.017Z,8.60
2018-12-08T12:39:06.190Z,8.56
2018-12-08T12:40:06.361Z,8.58
2018-12-08T12:41:06.537Z,8.61
2018-12-08T12:42:06.712Z,8.58
2018-12-08T12:43:06.882Z,8.56
2018-12-08T12:44:07.079Z,8.56
2018-12-08T12:45:07.230Z,8.56
2018-12-08T12:46:07.401Z,8.73
2018-12-08T12:47:07.574Z,8.69
2018-12-08T12:48:07.752Z,8.63
2018-12-08T12:49:07.930Z,8.74
2018-12-08T12:50:08.100Z,8.78
2018-12-08T12:51:08.274Z,8.73
2018-12-08T12:52:08.448Z,8.82
2018-12-08T12:53:08.624Z,8.63
2018-12-08T12:54:08.801Z,8.74
2018-12-08T12:55:09.017Z,8.66
2018-12-08T12:56:09.139Z,8.64
2018-12-08T12:57:09.317Z,8.69
2018-12-08T12:58:09.489Z,8.53
2018-12-08T12:59:09.665Z,8.60
2018-12-08T13:00:09.840Z,8.53
2018-12-08T13:01:10.033Z,8.55
2018-12-08T13:02:10.195Z,8.63
2018-12-08T13:03:10.373Z,8.64
2018-12-08T13:04:10.545Z,8.61
2018-12-08T13:05:10.729Z,8.73
2018-12-08T13:06:10.894Z,8.76
2018-12-08T13:07:11.077Z,8.74
2018-12-08T13:08:11.266Z,8.69
2018-12-08T13:09:11.427Z,8.84
2018-12-08T13:10:11.603Z,8.67
2018-12-08T13:11:11.781Z,8.61
2018-12-08T13:12:11.951Z,8.70
2018-12-08T13:13:12.119Z,8.67
2018-12-08T13:14:13.238Z,8.64
2018-12-08T13:15:12.474Z,8.69
2018-12-08T13:16:12.639Z,8.60
2018-12-08T13:17:12.811Z,8.64
2018-12-08T13:18:12.985Z,8.63
2018-12-08T13:19:13.161Z,8.64
2018-12-08T13:20:13.344Z,8.69
2018-12-08T13:21:13.516Z,8.71
2018-12-08T13:22:13.687Z,8.82